sensor_id;sensor_type;location;lat;lon;timestamp;pressure;altitude;pressure_sealevel;temperature;humidity
6829;BME280;17930;48.592;8.868;2023-02-28T00:00:19;97377.19;;;-2.04;100.00
6829;BME280;17930;48.592;8.868;2023-02-28T00:02:46;97366.16;;;-2.05;100.00
6829;BME280;17930;48.592;8.868;2023-02-28T00:05:16;97377.97;;;-2.04;100.00
6829;BME280;17930;48.592;8.868;2023-02-28T00:07:45;97377.69;;;-2.23;100.00
6829;BME280;17930;48.592;8.868;2023-02-28T00:10:14;97378.41;;;-2.29;100.00
6829;BME280;17930;48.592;8.868;2023-02-28T00:12:41;97374.44;;;-2.32;100.00
6829;BME280;17930;48.592;8.868;2023-02-28T00:15:09;97375.84;;;-2.15;100.00
6829;BME280;17930;48.592;8.868;2023-02-28T00:17:37;97372.59;;;-2.23;100.00
6829;BME280;17930;48.592;8.868;2023-02-28T00:20:05;97373.31;;;-2.29;100.00
6829;BME280;17930;48.592;8.868;2023-02-28T00:22:33;97374.19;;;-2.22;100.00
6829;BME280;17930;48.592;8.868;2023-02-28T00:25:01;97369.59;;;-2.12;100.00
6829;BME280;17930;48.592;8.868;2023-02-28T00:27:28;97360.72;;;-2.31;100.00
6829;BME280;17930;48.592;8.868;2023-02-28T00:29:55;97373.94;;;-2.27;100.00
6829;BME280;17930;48.592;8.868;2023-02-28T00:32:22;97365.75;;;-2.37;100.00
6829;BME280;17930;48.592;8.868;2023-02-28T00:34:49;97365.56;;;-2.21;100.00
6829;BME280;17930;48.592;8.868;2023-02-28T00:37:15;97372.06;;;-2.33;100.00
6829;BME280;17930;48.592;8.868;2023-02-28T00:39:42;97360.66;;;-2.37;100.00
6829;BME280;17930;48.592;8.868;2023-02-28T00:42:10;97366.53;;;-2.51;100.00
6829;BME280;17930;48.592;8.868;2023-02-28T00:44:37;97362.56;;;-2.39;100.00
6829;BME280;17930;48.592;8.868;2023-02-28T00:47:04;97367.59;;;-2.46;100.00
6829;BME280;17930;48.592;8.868;2023-02-28T00:49:30;97364.41;;;-2.48;100.00
6829;BME280;17930;48.592;8.868;2023-02-28T00:51:57;97371.66;;;-2.51;100.00
6829;BME280;17930;48.592;8.868;2023-02-28T00:54:24;97357.81;;;-2.56;100.00
6829;BME280;17930;48.592;8.868;2023-02-28T00:56:50;97362.22;;;-2.65;100.00
6829;BME280;17930;48.592;8.868;2023-02-28T00:59:19;97368.28;;;-2.66;100.00
6829;BME280;17930;48.592;8.868;2023-02-28T01:01:46;97359.22;;;-2.68;100.00
6829;BME280;17930;48.592;8.868;2023-02-28T01:04:13;97359.56;;;-2.71;100.00
6829;BME280;17930;48.592;8.868;2023-02-28T01:06:40;97369.03;;;-2.80;100.00
6829;BME280;17930;48.592;8.868;2023-02-28T01:09:07;97357.19;;;-2.73;100.00
6829;BME280;17930;48.592;8.868;2023-02-28T01:11:34;97358.78;;;-2.72;100.00
6829;BME280;17930;48.592;8.868;2023-02-28T01:14:01;97354.56;;;-2.79;100.00
6829;BME280;17930;48.592;8.868;2023-02-28T01:16:30;97358.06;;;-2.80;100.00
6829;BME280;17930;48.592;8.868;2023-02-28T01:18:57;97357.88;;;-2.79;100.00
6829;BME280;17930;48.592;8.868;2023-02-28T01:21:24;97355.53;;;-2.66;100.00
6829;BME280;17930;48.592;8.868;2023-02-28T01:23:50;97358.53;;;-2.77;100.00
6829;BME280;17930;48.592;8.868;2023-02-28T01:26:19;97358.22;;;-2.82;100.00
6829;BME280;17930;48.592;8.868;2023-02-28T01:28:46;97354.56;;;-2.79;100.00
6829;BME280;17930;48.592;8.868;2023-02-28T01:31:13;97353.41;;;-2.77;100.00
6829;BME280;17930;48.592;8.868;2023-02-28T01:33:41;97357.34;;;-2.89;100.00
6829;BME280;17930;48.592;8.868;2023-02-28T01:36:11;97357.00;;;-2.86;100.00
6829;BME280;17930;48.592;8.868;2023-02-28T01:38:38;97352.19;;;-2.81;100.00
6829;BME280;17930;48.592;8.868;2023-02-28T01:41:05;97346.19;;;-2.88;100.00
6829;BME280;17930;48.592;8.868;2023-02-28T01:43:53;97346.19;;;-2.88;100.00
6829;BME280;17930;48.592;8.868;2023-02-28T01:46:20;97336.88;;;-2.81;100.00
6829;BME280;17930;48.592;8.868;2023-02-28T01:48:51;97341.78;;;-2.94;100.00
6829;BME280;17930;48.592;8.868;2023-02-28T01:51:21;97346.25;;;-2.96;100.00
6829;BME280;17930;48.592;8.868;2023-02-28T01:53:51;97345.19;;;-3.01;100.00
6829;BME280;17930;48.592;8.868;2023-02-28T01:56:22;97339.66;;;-3.05;100.00
6829;BME280;17930;48.592;8.868;2023-02-28T01:58:51;97343.09;;;-2.98;100.00
6829;BME280;17930;48.592;8.868;2023-02-28T02:01:20;97337.53;;;-3.01;100.00
6829;BME280;17930;48.592;8.868;2023-02-28T02:03:49;97333.84;;;-2.99;100.00
6829;BME280;17930;48.592;8.868;2023-02-28T02:06:21;97331.59;;;-2.94;100.00
6829;BME280;17930;48.592;8.868;2023-02-28T02:08:48;97330.00;;;-2.95;100.00
6829;BME280;17930;48.592;8.868;2023-02-28T02:11:17;97331.22;;;-2.91;100.00
6829;BME280;17930;48.592;8.868;2023-02-28T02:14:00;97330.00;;;-2.95;100.00
6829;BME280;17930;48.592;8.868;2023-02-28T02:16:38;97325.84;;;-2.96;100.00
6829;BME280;17930;48.592;8.868;2023-02-28T02:19:32;97327.16;;;-3.00;100.00
6829;BME280;17930;48.592;8.868;2023-02-28T02:22:25;97322.06;;;-3.00;100.00
6829;BME280;17930;48.592;8.868;2023-02-28T02:25:19;97323.66;;;-2.99;100.00
6829;BME280;17930;48.592;8.868;2023-02-28T02:28:17;97319.50;;;-3.00;100.00
6829;BME280;17930;48.592;8.868;2023-02-28T02:31:06;97314.50;;;-3.07;100.00
6829;BME280;17930;48.592;8.868;2023-02-28T02:34:09;97311.84;;;-3.00;100.00
6829;BME280;17930;48.592;8.868;2023-02-28T02:36:46;97316.41;;;-3.09;100.00
6829;BME280;17930;48.592;8.868;2023-02-28T02:39:19;97315.09;;;-3.06;100.00
6829;BME280;17930;48.592;8.868;2023-02-28T02:41:52;97321.97;;;-3.06;100.00
6829;BME280;17930;48.592;8.868;2023-02-28T02:44:21;97320.56;;;-3.08;100.00
6829;BME280;17930;48.592;8.868;2023-02-28T02:46:53;97321.44;;;-3.02;100.00
6829;BME280;17930;48.592;8.868;2023-02-28T02:49:26;97323.88;;;-3.08;100.00
6829;BME280;17930;48.592;8.868;2023-02-28T02:51:56;97323.88;;;-3.08;100.00
6829;BME280;17930;48.592;8.868;2023-02-28T02:54:26;97326.97;;;-3.12;100.00
6829;BME280;17930;48.592;8.868;2023-02-28T02:56:56;97323.81;;;-3.00;100.00
6829;BME280;17930;48.592;8.868;2023-02-28T02:59:25;97322.69;;;-2.98;100.00
6829;BME280;17930;48.592;8.868;2023-02-28T03:01:56;97320.13;;;-2.98;100.00
6829;BME280;17930;48.592;8.868;2023-02-28T03:04:27;97320.50;;;-3.01;100.00
6829;BME280;17930;48.592;8.868;2023-02-28T03:06:55;97323.66;;;-2.99;100.00
6829;BME280;17930;48.592;8.868;2023-02-28T03:09:22;97320.13;;;-2.98;100.00
6829;BME280;17930;48.592;8.868;2023-02-28T03:11:51;97325.84;;;-2.96;100.00
6829;BME280;17930;48.592;8.868;2023-02-28T03:14:43;97331.28;;;-2.99;100.00
6829;BME280;17930;48.592;8.868;2023-02-28T03:17:26;97315.09;;;-3.06;100.00
6829;BME280;17930;48.592;8.868;2023-02-28T03:20:03;97322.88;;;-2.99;100.00
6829;BME280;17930;48.592;8.868;2023-02-28T03:25:33;97321.69;;;-2.97;100.00
6829;BME280;17930;48.592;8.868;2023-02-28T03:28:08;97318.91;;;-3.02;100.00
6829;BME280;17930;48.592;8.868;2023-02-28T03:30:42;97322.00;;;-2.92;100.00
6829;BME280;17930;48.592;8.868;2023-02-28T03:33:15;97321.03;;;-2.91;100.00
6829;BME280;17930;48.592;8.868;2023-02-28T03:35:47;97320.03;;;-2.90;100.00
6829;BME280;17930;48.592;8.868;2023-02-28T03:38:18;97317.06;;;-2.79;100.00
6829;BME280;17930;48.592;8.868;2023-02-28T03:40:49;97316.72;;;-2.76;100.00
6829;BME280;17930;48.592;8.868;2023-02-28T03:43:20;97314.44;;;-2.71;100.00
6829;BME280;17930;48.592;8.868;2023-02-28T03:45:50;97310.41;;;-2.65;100.00
6829;BME280;17930;48.592;8.868;2023-02-28T03:48:22;97317.94;;;-2.57;100.00
6829;BME280;17930;48.592;8.868;2023-02-28T03:50:54;97313.00;;;-2.45;100.00
6829;BME280;17930;48.592;8.868;2023-02-28T03:53:25;97311.69;;;-2.41;100.00
6829;BME280;17930;48.592;8.868;2023-02-28T03:55:56;97323.59;;;-2.48;100.00
6829;BME280;17930;48.592;8.868;2023-02-28T03:58:27;97319.44;;;-2.34;100.00
6829;BME280;17930;48.592;8.868;2023-02-28T04:01:01;97316.34;;;-2.30;100.00
6829;BME280;17930;48.592;8.868;2023-02-28T04:03:34;97320.66;;;-2.30;100.00
6829;BME280;17930;48.592;8.868;2023-02-28T04:06:04;97316.19;;;-2.28;100.00
6829;BME280;17930;48.592;8.868;2023-02-28T04:08:32;97318.09;;;-2.30;100.00
6829;BME280;17930;48.592;8.868;2023-02-28T04:11:02;97317.22;;;-2.23;100.00
6829;BME280;17930;48.592;8.868;2023-02-28T04:13:31;97317.66;;;-2.19;100.00
6829;BME280;17930;48.592;8.868;2023-02-28T04:15:58;97320.13;;;-2.11;100.00
6829;BME280;17930;48.592;8.868;2023-02-28T04:18:24;97317.81;;;-2.06;100.00
6829;BME280;17930;48.592;8.868;2023-02-28T04:20:51;97318.25;;;-2.03;100.00
6829;BME280;17930;48.592;8.868;2023-02-28T04:23:19;97316.75;;;-2.12;100.00
6829;BME280;17930;48.592;8.868;2023-02-28T04:25:45;97315.88;;;-2.04;100.00
6829;BME280;17930;48.592;8.868;2023-02-28T04:28:12;97315.06;;;-2.05;100.00
6829;BME280;17930;48.592;8.868;2023-02-28T04:30:39;97316.59;;;-2.10;100.00
6829;BME280;17930;48.592;8.868;2023-02-28T04:33:06;97306.72;;;-1.99;100.00
6829;BME280;17930;48.592;8.868;2023-02-28T04:35:32;97313.16;;;-2.03;100.00
6829;BME280;17930;48.592;8.868;2023-02-28T04:37:59;97315.78;;;-2.11;100.00
6829;BME280;17930;48.592;8.868;2023-02-28T04:40:27;97311.50;;;-2.10;100.00
6829;BME280;17930;48.592;8.868;2023-02-28T04:42:54;97304.78;;;-2.11;100.00
6829;BME280;17930;48.592;8.868;2023-02-28T04:45:20;97308.09;;;-1.97;100.00
6829;BME280;17930;48.592;8.868;2023-02-28T04:47:47;97312.13;;;-1.88;100.00
6829;BME280;17930;48.592;8.868;2023-02-28T04:50:14;97310.78;;;-1.84;100.00
6829;BME280;17930;48.592;8.868;2023-02-28T04:52:41;97310.53;;;-1.89;100.00
6829;BME280;17930;48.592;8.868;2023-02-28T04:55:08;97311.78;;;-1.85;100.00
6829;BME280;17930;48.592;8.868;2023-02-28T04:57:36;97308.53;;;-1.72;100.00
6829;BME280;17930;48.592;8.868;2023-02-28T05:00:04;97319.13;;;-1.75;100.00
6829;BME280;17930;48.592;8.868;2023-02-28T05:02:37;97313.34;;;-1.84;100.00
6829;BME280;17930;48.592;8.868;2023-02-28T05:05:04;97319.66;;;-1.80;100.00
6829;BME280;17930;48.592;8.868;2023-02-28T05:07:31;97320.03;;;-1.83;100.00
6829;BME280;17930;48.592;8.868;2023-02-28T05:09:58;97320.91;;;-1.76;100.00
6829;BME280;17930;48.592;8.868;2023-02-28T05:12:24;97325.31;;;-1.84;100.00
6829;BME280;17930;48.592;8.868;2023-02-28T05:14:52;97323.22;;;-1.81;100.00
6829;BME280;17930;48.592;8.868;2023-02-28T05:17:19;97325.66;;;-1.73;100.00
6829;BME280;17930;48.592;8.868;2023-02-28T05:19:46;97323.56;;;-1.84;100.00
6829;BME280;17930;48.592;8.868;2023-02-28T05:22:13;97322.50;;;-1.75;100.00
6829;BME280;17930;48.592;8.868;2023-02-28T05:24:41;97331.84;;;-1.82;100.00
6829;BME280;17930;48.592;8.868;2023-02-28T05:27:09;97327.81;;;-1.91;100.00
6829;BME280;17930;48.592;8.868;2023-02-28T05:29:35;97335.13;;;-1.67;100.00
6829;BME280;17930;48.592;8.868;2023-02-28T05:32:09;97332.44;;;-1.80;100.00
6829;BME280;17930;48.592;8.868;2023-02-28T05:34:36;97331.41;;;-1.85;100.00
6829;BME280;17930;48.592;8.868;2023-02-28T05:37:03;97327.34;;;-1.80;100.00
6829;BME280;17930;48.592;8.868;2023-02-28T05:39:30;97332.09;;;-1.77;100.00
6829;BME280;17930;48.592;8.868;2023-02-28T05:41:57;97325.03;;;-1.75;100.00
6829;BME280;17930;48.592;8.868;2023-02-28T05:44:23;97326.59;;;-1.74;100.00
6829;BME280;17930;48.592;8.868;2023-02-28T05:46:50;97323.72;;;-1.71;100.00
6829;BME280;17930;48.592;8.868;2023-02-28T05:49:18;97323.47;;;-1.76;100.00
6829;BME280;17930;48.592;8.868;2023-02-28T05:51:45;97325.09;;;-1.89;100.00
6829;BME280;17930;48.592;8.868;2023-02-28T05:54:12;97319.53;;;-1.93;100.00
6829;BME280;17930;48.592;8.868;2023-02-28T05:56:38;97322.59;;;-1.83;100.00
6829;BME280;17930;48.592;8.868;2023-02-28T05:59:06;97319.44;;;-1.85;100.00
6829;BME280;17930;48.592;8.868;2023-02-28T06:01:37;97327.47;;;-1.88;100.00
6829;BME280;17930;48.592;8.868;2023-02-28T06:04:08;97332.94;;;-1.91;100.00
6829;BME280;17930;48.592;8.868;2023-02-28T06:06:36;97335.50;;;-1.91;100.00
6829;BME280;17930;48.592;8.868;2023-02-28T06:09:04;97335.81;;;-1.94;100.00
6829;BME280;17930;48.592;8.868;2023-02-28T06:11:32;97335.22;;;-1.96;100.00
6829;BME280;17930;48.592;8.868;2023-02-28T06:14:00;97336.47;;;-1.92;100.00
6829;BME280;17930;48.592;8.868;2023-02-28T06:16:32;97341.56;;;-1.92;100.00
6829;BME280;17930;48.592;8.868;2023-02-28T06:19:01;97347.63;;;-1.93;100.00
6829;BME280;17930;48.592;8.868;2023-02-28T06:21:28;97352.19;;;-1.88;100.00
6829;BME280;17930;48.592;8.868;2023-02-28T06:23:57;97365.78;;;-1.88;100.00
6829;BME280;17930;48.592;8.868;2023-02-28T06:26:24;97351.41;;;-1.89;100.00
6829;BME280;17930;48.592;8.868;2023-02-28T06:28:51;97352.66;;;-1.85;100.00
6829;BME280;17930;48.592;8.868;2023-02-28T06:31:18;97354.84;;;-1.82;100.00
6829;BME280;17930;48.592;8.868;2023-02-28T06:34:01;97362.56;;;-1.75;100.00
6829;BME280;17930;48.592;8.868;2023-02-28T06:36:57;97356.66;;;-1.76;100.00
6829;BME280;17930;48.592;8.868;2023-02-28T06:39:29;97360.81;;;-1.75;100.00
6829;BME280;17930;48.592;8.868;2023-02-28T06:41:55;97353.28;;;-1.62;100.00
6829;BME280;17930;48.592;8.868;2023-02-28T06:44:23;97365.44;;;-1.64;100.00
6829;BME280;17930;48.592;8.868;2023-02-28T06:46:50;97359.50;;;-1.71;100.00
6829;BME280;17930;48.592;8.868;2023-02-28T06:49:17;97363.25;;;-1.67;100.00
6829;BME280;17930;48.592;8.868;2023-02-28T06:51:46;97370.56;;;-1.64;100.00
6829;BME280;17930;48.592;8.868;2023-02-28T06:54:13;97365.09;;;-1.61;100.00
6829;BME280;17930;48.592;8.868;2023-02-28T06:56:41;97363.38;;;-1.54;100.00
6829;BME280;17930;48.592;8.868;2023-02-28T06:59:08;97369.84;;;-1.58;100.00
6829;BME280;17930;48.592;8.868;2023-02-28T07:01:35;97374.66;;;-1.49;100.00
6829;BME280;17930;48.592;8.868;2023-02-28T07:04:02;97375.19;;;-1.53;100.00
6829;BME280;17930;48.592;8.868;2023-02-28T07:06:32;97370.72;;;-1.51;100.00
6829;BME280;17930;48.592;8.868;2023-02-28T07:08:59;97381.13;;;-1.32;100.00
6829;BME280;17930;48.592;8.868;2023-02-28T07:11:27;97376.91;;;-1.39;100.00
6829;BME280;17930;48.592;8.868;2023-02-28T07:13:56;97372.72;;;-1.26;100.00
6829;BME280;17930;48.592;8.868;2023-02-28T07:16:26;97379.19;;;-1.30;100.00
6829;BME280;17930;48.592;8.868;2023-02-28T07:18:54;97372.47;;;-1.31;100.00
6829;BME280;17930;48.592;8.868;2023-02-28T07:21:23;97377.34;;;-1.15;100.00
6829;BME280;17930;48.592;8.868;2023-02-28T07:23:50;97376.66;;;-1.02;100.00
6829;BME280;17930;48.592;8.868;2023-02-28T07:26:19;97377.06;;;-0.99;100.00
6829;BME280;17930;48.592;8.868;2023-02-28T07:28:47;97375.91;;;-0.97;100.00
6829;BME280;17930;48.592;8.868;2023-02-28T07:31:16;97378.56;;;-0.90;100.00
6829;BME280;17930;48.592;8.868;2023-02-28T07:33:44;97380.28;;;-0.91;100.00
6829;BME280;17930;48.592;8.868;2023-02-28T07:36:13;97369.19;;;-0.77;100.00
6829;BME280;17930;48.592;8.868;2023-02-28T07:38:41;97381.22;;;-0.77;100.00
6829;BME280;17930;48.592;8.868;2023-02-28T07:41:08;97372.03;;;-0.93;100.00
6829;BME280;17930;48.592;8.868;2023-02-28T07:43:35;97375.13;;;-0.76;100.00
6829;BME280;17930;48.592;8.868;2023-02-28T07:46:04;97369.19;;;-0.77;100.00
6829;BME280;17930;48.592;8.868;2023-02-28T07:48:32;97380.53;;;-0.86;100.00
6829;BME280;17930;48.592;8.868;2023-02-28T07:50:59;97378.31;;;-0.68;100.00
6829;BME280;17930;48.592;8.868;2023-02-28T07:53:31;97374.84;;;-0.54;100.00
6829;BME280;17930;48.592;8.868;2023-02-28T07:55:59;97375.84;;;-0.55;100.00
6829;BME280;17930;48.592;8.868;2023-02-28T07:58:27;97375.84;;;-0.55;100.00
6829;BME280;17930;48.592;8.868;2023-02-28T08:00:54;97380.81;;;-0.47;100.00
6829;BME280;17930;48.592;8.868;2023-02-28T08:03:23;97379.41;;;-0.50;100.00
6829;BME280;17930;48.592;8.868;2023-02-28T08:05:53;97383.16;;;-0.52;100.00
6829;BME280;17930;48.592;8.868;2023-02-28T08:08:25;97393.97;;;-0.56;100.00
6829;BME280;17930;48.592;8.868;2023-02-28T08:10:54;97387.28;;;-0.51;100.00
6829;BME280;17930;48.592;8.868;2023-02-28T08:13:21;97389.78;;;-0.37;100.00
6829;BME280;17930;48.592;8.868;2023-02-28T08:15:52;97400.16;;;-0.45;100.00
6829;BME280;17930;48.592;8.868;2023-02-28T08:18:20;97400.72;;;-0.49;100.00
6829;BME280;17930;48.592;8.868;2023-02-28T08:20:46;97403.50;;;-0.44;100.00
6829;BME280;17930;48.592;8.868;2023-02-28T08:23:14;97400.34;;;-0.46;100.00
6829;BME280;17930;48.592;8.868;2023-02-28T08:25:41;97396.50;;;-0.29;100.00
6829;BME280;17930;48.592;8.868;2023-02-28T08:28:08;97403.66;;;-0.18;100.00
6829;BME280;17930;48.592;8.868;2023-02-28T08:30:35;97403.63;;;-0.25;100.00
6829;BME280;17930;48.592;8.868;2023-02-28T08:33:02;97413.94;;;-0.12;100.00
6829;BME280;17930;48.592;8.868;2023-02-28T08:35:28;97410.78;;;-0.14;100.00
6829;BME280;17930;48.592;8.868;2023-02-28T08:37:55;97403.88;;;-0.13;100.00
6829;BME280;17930;48.592;8.868;2023-02-28T08:40:23;97404.47;;;-0.11;100.00
6829;BME280;17930;48.592;8.868;2023-02-28T08:42:50;97404.53;;;-0.05;100.00
6829;BME280;17930;48.592;8.868;2023-02-28T08:45:17;97401.72;;;-0.10;100.00
6829;BME280;17930;48.592;8.868;2023-02-28T08:47:43;97406.56;;;0.12;100.00
6829;BME280;17930;48.592;8.868;2023-02-28T08:50:10;97405.06;;;0.24;100.00
6829;BME280;17930;48.592;8.868;2023-02-28T08:52:42;97414.09;;;0.20;100.00
6829;BME280;17930;48.592;8.868;2023-02-28T08:55:09;97413.13;;;0.21;100.00
6829;BME280;17930;48.592;8.868;2023-02-28T08:57:37;97406.63;;;0.19;100.00
6829;BME280;17930;48.592;8.868;2023-02-28T09:00:05;97427.91;;;0.19;100.00
6829;BME280;17930;48.592;8.868;2023-02-28T09:02:33;97416.28;;;0.23;100.00
6829;BME280;17930;48.592;8.868;2023-02-28T09:05:00;97418.25;;;0.21;100.00
6829;BME280;17930;48.592;8.868;2023-02-28T09:07:27;97419.63;;;0.24;100.00
6829;BME280;17930;48.592;8.868;2023-02-28T09:09:53;97422.81;;;0.32;100.00
6829;BME280;17930;48.592;8.868;2023-02-28T09:12:20;97423.25;;;0.36;100.00
6829;BME280;17930;48.592;8.868;2023-02-28T09:14:49;97425.19;;;0.34;100.00
6829;BME280;17930;48.592;8.868;2023-02-28T09:17:16;97424.84;;;0.43;100.00
6829;BME280;17930;48.592;8.868;2023-02-28T09:19:43;97431.78;;;0.49;100.00
6829;BME280;17930;48.592;8.868;2023-02-28T09:22:11;97424.03;;;0.36;100.00
6829;BME280;17930;48.592;8.868;2023-02-28T09:24:38;97423.88;;;0.44;100.00
6829;BME280;17930;48.592;8.868;2023-02-28T09:27:04;97428.31;;;0.69;100.00
6829;BME280;17930;48.592;8.868;2023-02-28T09:29:33;97430.25;;;0.61;100.00
6829;BME280;17930;48.592;8.868;2023-02-28T09:32:02;97420.22;;;0.72;100.00
6829;BME280;17930;48.592;8.868;2023-02-28T09:34:30;97424.56;;;0.85;100.00
6829;BME280;17930;48.592;8.868;2023-02-28T09:36:57;97415.50;;;0.89;100.00
6829;BME280;17930;48.592;8.868;2023-02-28T09:39:24;97430.91;;;1.01;100.00
6829;BME280;17930;48.592;8.868;2023-02-28T09:41:52;97426.59;;;1.15;100.00
6829;BME280;17930;48.592;8.868;2023-02-28T09:44:24;97432.34;;;1.10;100.00
6829;BME280;17930;48.592;8.868;2023-02-28T09:46:54;97430.53;;;1.04;100.00
6829;BME280;17930;48.592;8.868;2023-02-28T09:49:26;97434.50;;;1.13;100.00
6829;BME280;17930;48.592;8.868;2023-02-28T09:51:58;97433.31;;;1.09;100.00
6829;BME280;17930;48.592;8.868;2023-02-28T09:54:29;97434.09;;;1.23;100.00
6829;BME280;17930;48.592;8.868;2023-02-28T09:56:59;97430.94;;;1.21;100.00
6829;BME280;17930;48.592;8.868;2023-02-28T09:59:36;97435.66;;;1.04;100.00
6829;BME280;17930;48.592;8.868;2023-02-28T10:02:16;97439.59;;;0.94;100.00
6829;BME280;17930;48.592;8.868;2023-02-28T10:04:50;97441.00;;;0.97;100.00
6829;BME280;17930;48.592;8.868;2023-02-28T10:07:36;97445.97;;;1.17;100.00
6829;BME280;17930;48.592;8.868;2023-02-28T10:10:07;97442.41;;;1.18;100.00
6829;BME280;17930;48.592;8.868;2023-02-28T10:12:45;97445.56;;;1.14;100.00
6829;BME280;17930;48.592;8.868;2023-02-28T10:15:14;97450.31;;;1.10;100.00
6829;BME280;17930;48.592;8.868;2023-02-28T10:17:43;97453.06;;;1.28;100.00
6829;BME280;17930;48.592;8.868;2023-02-28T10:20:17;97450.72;;;1.33;100.00
6829;BME280;17930;48.592;8.868;2023-02-28T10:22:52;97453.66;;;1.11;100.00
6829;BME280;17930;48.592;8.868;2023-02-28T10:25:21;97453.88;;;1.35;100.00
6829;BME280;17930;48.592;8.868;2023-02-28T10:27:49;97450.72;;;1.40;100.00
6829;BME280;17930;48.592;8.868;2023-02-28T10:30:19;97450.31;;;1.49;100.00
6829;BME280;17930;48.592;8.868;2023-02-28T10:32:49;97457.84;;;1.70;100.00
6829;BME280;17930;48.592;8.868;2023-02-28T10:35:21;97456.44;;;1.48;100.00
6829;BME280;17930;48.592;8.868;2023-02-28T10:37:50;97457.84;;;1.57;100.00
6829;BME280;17930;48.592;8.868;2023-02-28T10:40:31;97455.69;;;1.54;100.00
6829;BME280;17930;48.592;8.868;2023-02-28T10:42:59;97458.41;;;1.91;100.00
6829;BME280;17930;48.592;8.868;2023-02-28T10:45:27;97449.88;;;1.91;100.00
6829;BME280;17930;48.592;8.868;2023-02-28T10:47:56;97451.84;;;2.08;100.00
6829;BME280;17930;48.592;8.868;2023-02-28T10:50:31;97451.28;;;2.00;100.00
6829;BME280;17930;48.592;8.868;2023-02-28T10:53:14;97456.50;;;2.37;100.00
6829;BME280;17930;48.592;8.868;2023-02-28T10:55:42;97456.16;;;2.33;100.00
6829;BME280;17930;48.592;8.868;2023-02-28T10:58:22;97451.97;;;2.32;100.00
6829;BME280;17930;48.592;8.868;2023-02-28T11:00:50;97449.22;;;2.27;100.00
6829;BME280;17930;48.592;8.868;2023-02-28T11:03:29;97455.69;;;2.49;100.00
6829;BME280;17930;48.592;8.868;2023-02-28T11:05:58;97459.78;;;2.63;100.00
6829;BME280;17930;48.592;8.868;2023-02-28T11:08:25;97454.50;;;2.45;100.00
6829;BME280;17930;48.592;8.868;2023-02-28T11:10:55;97454.88;;;2.49;100.00
6829;BME280;17930;48.592;8.868;2023-02-28T11:13:27;97456.69;;;2.92;100.00
6829;BME280;17930;48.592;8.868;2023-02-28T11:16:00;97457.31;;;3.18;100.00
6829;BME280;17930;48.592;8.868;2023-02-28T11:18:29;97461.13;;;2.78;100.00
6829;BME280;17930;48.592;8.868;2023-02-28T11:21:03;97459.03;;;3.00;100.00
6829;BME280;17930;48.592;8.868;2023-02-28T11:23:32;97450.84;;;3.33;100.00
6829;BME280;17930;48.592;8.868;2023-02-28T11:26:02;97460.72;;;3.12;100.00
6829;BME280;17930;48.592;8.868;2023-02-28T11:28:31;97466.22;;;2.85;100.00
6829;BME280;17930;48.592;8.868;2023-02-28T11:31:06;97460.72;;;2.75;100.00
6829;BME280;17930;48.592;8.868;2023-02-28T11:33:41;97455.09;;;2.91;100.00
6829;BME280;17930;48.592;8.868;2023-02-28T11:36:14;97460.84;;;3.23;100.00
6829;BME280;17930;48.592;8.868;2023-02-28T11:38:45;97460.16;;;3.65;100.00
6829;BME280;17930;48.592;8.868;2023-02-28T11:44:18;97469.50;;;3.84;100.00
6829;BME280;17930;48.592;8.868;2023-02-28T11:46:54;97441.28;;;3.89;100.00
6829;BME280;17930;48.592;8.868;2023-02-28T11:49:35;97450.19;;;4.10;100.00
6829;BME280;17930;48.592;8.868;2023-02-28T11:52:20;97440.25;;;4.14;100.00
6829;BME280;17930;48.592;8.868;2023-02-28T11:54:59;97438.75;;;4.24;100.00
6829;BME280;17930;48.592;8.868;2023-02-28T11:57:46;97432.22;;;4.87;100.00
6829;BME280;17930;48.592;8.868;2023-02-28T12:00:31;97437.06;;;4.83;100.00
6829;BME280;17930;48.592;8.868;2023-02-28T12:03:11;97432.22;;;4.87;100.00
6829;BME280;17930;48.592;8.868;2023-02-28T12:05:45;97430.88;;;5.25;100.00
6829;BME280;17930;48.592;8.868;2023-02-28T12:08:26;97428.91;;;5.38;100.00
6829;BME280;17930;48.592;8.868;2023-02-28T12:11:03;97431.50;;;5.38;100.00
6829;BME280;17930;48.592;8.868;2023-02-28T12:13:41;97427.13;;;5.50;100.00
6829;BME280;17930;48.592;8.868;2023-02-28T12:16:52;97427.50;;;5.65;100.00
6829;BME280;17930;48.592;8.868;2023-02-28T12:19:22;97431.09;;;5.23;99.54
6829;BME280;17930;48.592;8.868;2023-02-28T12:22:11;97419.63;;;5.83;100.00
6829;BME280;17930;48.592;8.868;2023-02-28T12:24:49;97415.06;;;7.63;92.16
6829;BME280;17930;48.592;8.868;2023-02-28T12:27:23;97404.44;;;7.80;83.81
6829;BME280;17930;48.592;8.868;2023-02-28T12:29:54;97414.63;;;6.38;84.71
6829;BME280;17930;48.592;8.868;2023-02-28T12:32:26;97423.69;;;5.90;90.62
6829;BME280;17930;48.592;8.868;2023-02-28T12:35:00;97407.94;;;6.14;88.89
6829;BME280;17930;48.592;8.868;2023-02-28T12:37:35;97418.19;;;5.87;90.30
6829;BME280;17930;48.592;8.868;2023-02-28T12:40:11;97417.91;;;6.22;92.81
6829;BME280;17930;48.592;8.868;2023-02-28T12:42:41;97405.78;;;6.90;87.03
6829;BME280;17930;48.592;8.868;2023-02-28T12:45:13;97399.50;;;7.46;87.08
6829;BME280;17930;48.592;8.868;2023-02-28T12:47:42;97392.91;;;7.71;82.90
6829;BME280;17930;48.592;8.868;2023-02-28T12:50:13;97400.13;;;7.20;82.42
6829;BME280;17930;48.592;8.868;2023-02-28T12:52:48;97393.69;;;6.28;84.01
6829;BME280;17930;48.592;8.868;2023-02-28T12:55:23;97401.38;;;6.23;88.14
6829;BME280;17930;48.592;8.868;2023-02-28T12:57:58;97404.06;;;5.60;88.58
6829;BME280;17930;48.592;8.868;2023-02-28T13:00:34;97393.44;;;5.91;91.37
6829;BME280;17930;48.592;8.868;2023-02-28T13:03:17;97382.94;;;5.97;87.98
6829;BME280;17930;48.592;8.868;2023-02-28T13:06:12;97381.72;;;7.38;87.38
6829;BME280;17930;48.592;8.868;2023-02-28T13:11:39;97364.16;;;9.73;75.57
6829;BME280;17930;48.592;8.868;2023-02-28T13:14:20;97358.13;;;9.99;71.80
6829;BME280;17930;48.592;8.868;2023-02-28T13:16:59;97357.91;;;9.69;68.75
6829;BME280;17930;48.592;8.868;2023-02-28T13:19:28;97364.06;;;8.96;71.22
6829;BME280;17930;48.592;8.868;2023-02-28T13:21:57;97367.59;;;9.78;70.36
6829;BME280;17930;48.592;8.868;2023-02-28T13:24:43;97361.44;;;10.40;68.63
6829;BME280;17930;48.592;8.868;2023-02-28T13:27:21;97358.50;;;10.22;66.81
6829;BME280;17930;48.592;8.868;2023-02-28T13:29:51;97359.88;;;9.52;67.20
6829;BME280;17930;48.592;8.868;2023-02-28T13:32:25;97370.03;;;9.54;67.65